Weather at Serimbu Airstrip

Public forecast

Using degrees Celsius for public forecast. Weather courtesy of forecast.io.

Closest aviation weather report (METAR) to Serimbu Airstrip

Closest report is Kuching International Airport, 46.6 nm (86.4 km) NNE. Retrieved 2021/10/16 02:30 UTC (25 minutes ago):

WBGG 160230Z VRB01KT 9999 FEW014 32/25 Q1009 NOSIG

Closest aviation forecast (TAF) to Serimbu Airstrip

Closest forecast is Kuching International Airport, 46.6 nm (86.4 km) NNE. Retrieved 2021-10-16 00:10 UTC (3 hours ago):

TAF WBGG 152300Z 1600/1700 15005KT 9999 FEW020 TEMPO 1608/1612 28007KT 4000 TSRA FEW015CB